Terminal Aerodrome Forecast
Issued by NWS

Home | Current Version | Previous Version | Text Only | Print | Product List | Glossary On
Versions: 1 2 3 4 5 6 7 8 9 10 11 12 13 14 15 16 17 18 19 20 21 22 23 24 25
000
FTUS43 KJKL 181139
TAFSME
TAF
KSME 181139Z 1812/1912 VRB03KT 3/4SM BR VV003
     FM181330 VRB03KT 2SM BR FEW250
     FM181400 VRB03KT P6SM SCT250
     FM182000 VRB06KT P6SM SCT040 SCT120
     FM190100 09006KT P6SM VCSH BKN035 OVC100
     FM190700 11008KT 4SM -RA BR BKN020 OVC035=

USA.gov is the U.S. government's official web portal to all federal, state and local government web resources and services.